SCARSLLP

Guest
Details From SCAR - CHACALLUTA
To SLLP - La Paz
Flight Number -
Tags generated
Created
Modified
Stats Distance 165 nm / 306 km
Max Altitude 19,700 ft / 6,005 m
Waypoints 3
Social Downloads 0
Likes 0
Share

Download

Looking for another format? Having issues loading an existing format? Contact us
Advertisement - Login to hide

Notes

Basic altitude profile: - Ascent Rate: 2500ft/min - Ascent Speed: 250kts - Cruise Altitude: 35000ft - Cruise Speed: 420kts - Descent Rate: 1500ft/min - Descent Speed: 250kts Options: - Use NATs: yes - Use PACOTS: yes - Use low airways: yes - Use high airways: yes

Route

SCAR VAGUR SLLP

ID Type Via Altitude (ft/m) Position (lat/lon) Dist (leg/tot) Name
O SCAR APT - 0 / 0 -18.34853 / -70.33874 - / 0 nm CHACALLUTA
VAGUR FIX - 19,700 / 6,005 -17.58944 / -69.44167 68 / 68 nm
O SLLP APT - 0 / 0 -16.50936 / -68.19055 96 / 165 nm La Paz

Altitude Profile

Advertisement - Login to hide

Weather


0- 5 10 15 20 25 30 35+ Temperature / °C

Clouds and Precipitation
Forecast for 2020-05-26 18:00 UTC. Updated 2 hours ago

Ground ~20,000 ft ~40,000 ft Winds

SCAR

Details ICAO SCAR (ARI)
Name CHACALLUTA
Region Chile
Timezone America/Santiago (UTC-4.0)
Stats Elevation 166 ft / 51 m (AMSL)
Location -18.348500° -70.338700°
Runways 1
Magnetic Variation 5.956° W

METAR

SCAR 261700Z 24010KT CAVOK 20/14 Q1012

Decode

TAF

TAF SCAR 261030Z 2612/2712 33004KT 9999 OVC020 TX20/2619Z TN17/2706Z BECMG 2615/2617 22012KT CAVOK BECMG 2622/2700 19004KT BECMG 2704/2706 33004KT OVC020

Decode

Departure Runways

ID Width Length Bearing (true/mag) Surface Threshold Overrun Markings Lighting
02 148 ft / 45 m 7,149 ft / 2,179 m 19.19° / 25.14° ASPHALT 0 ft / 0 m 197 ft / 60 m APP EDGE THRESHOLD MALS
20 148 ft / 45 m 7,149 ft / 2,179 m 199.19° / 205.14° ASPHALT 0 ft / 0 m 197 ft / 60 m APP EDGE THRESHOLD REIL-OMNI

SLLP

Details ICAO SLLP (LPB)
Name El Alto Intl
Region Bolivia
Timezone America/La_Paz (UTC-4.0)
Stats Elevation 13,314 ft / 4,058 m (AMSL)
Location -16.513300° -68.192300°
Runways 1
Magnetic Variation 8.392° W

METAR

SLLP 261700Z 09003KT 9999 NSC 13/M15 Q1042

Decode

TAF

TAF SLLP 261100Z 2612/2612 04006KT 9999 NSC TX16/2620Z TNM05/2710Z TEMPO 2618/2621 04013KT

Decode

Destination Runways

ID Width Length Bearing (true/mag) Surface Threshold Overrun Markings Lighting
10 151 ft / 46 m 13,108 ft / 3,995 m 91.90° / 100.29° CONCRETE 0 ft / 0 m 108 ft / 33 m PREC-APP EDGE THRESHOLD ALSF-I REIL-OMNI
28 151 ft / 46 m 13,108 ft / 3,995 m 271.88° / 280.28° CONCRETE 0 ft / 0 m 125 ft / 38 m PREC-APP EDGE THRESHOLD REIL-OMNI

Approach Navaids

Runway Type Ident Frequency Range Bearing (true/mag) Slope Elevation
10 LOC-ILS ILPA 110.30 MHz 18 nm / 33 km 91.89° / 100.28 ° - 13,313 ft / 4,058 m (AMSL)
10 GS ILPA 110.30 MHz 10 nm / 19 km 92.79° / 101.18 ° 2.40° 13,313 ft / 4,058 m (AMSL)
10 MM MM - - 91.89° / 100.29 ° - 13,313 ft / 4,058 m (AMSL)

Popular Alternatives